Time;durP1;ratioP1;P1;durP2;ratioP2;P2;SDS_P1;SDS_P2;PMS_P1;PMS_P2;Temp;Humidity;BMP_temperature;BMP_pressure;BME280_temperature;BME280_humidity;BME280_pressure;Samples;Min_cycle;Max_cycle;Signal;HPM_P1;HPM_P2
2023/09/17 00:01:12;;;;;;;23.48;20.98;;;17.80;99.90;;;;;;5078901;27;20043;-82
2023/09/17 00:03:38;;;;;;;29.15;26.20;;;17.70;99.90;;;;;;5083426;28;20042;-81
2023/09/17 00:06:04;;;;;;;30.63;27.42;;;17.80;99.90;;;;;;5084032;28;20036;-82
2023/09/17 00:08:38;;;;;;;32.30;28.88;;;17.70;99.90;;;;;;5076455;28;20067;-82
2023/09/17 00:11:11;;;;;;;31.75;28.35;;;17.80;99.90;;;;;;5077557;28;20714;-81
2023/09/17 00:13:41;;;;;;;31.52;28.23;;;17.80;99.90;;;;;;5095424;28;20070;-82
2023/09/17 00:16:07;;;;;;;31.02;27.88;;;17.80;99.90;;;;;;5104292;27;20114;-81
2023/09/17 00:18:33;;;;;;;31.20;28.08;;;17.90;99.90;;;;;;5066022;27;20043;-81
2023/09/17 00:20:59;;;;;;;29.45;26.40;;;17.90;99.90;;;;;;5075380;27;20066;-81
2023/09/17 00:23:25;;;;;;;28.98;25.88;;;17.90;99.90;;;;;;5082305;27;20508;-81
2023/09/17 00:25:51;;;;;;;28.10;25.23;;;17.90;99.90;;;;;;5072926;27;20050;-82
2023/09/17 00:28:17;;;;;;;27.30;24.50;;;17.90;99.90;;;;;;5067848;27;20043;-81
2023/09/17 00:30:42;;;;;;;25.05;22.55;;;17.90;99.90;;;;;;5106715;27;20046;-81
2023/09/17 00:33:15;;;;;;;23.10;20.70;;;17.80;99.90;;;;;;5070100;27;20483;-79
2023/09/17 00:35:41;;;;;;;28.60;25.65;;;17.80;99.90;;;;;;5087246;27;20434;-80
2023/09/17 00:38:09;;;;;;;25.92;23.33;;;17.60;99.90;;;;;;5090091;27;20063;-80
2023/09/17 00:40:37;;;;;;;28.58;25.60;;;17.60;99.90;;;;;;5086298;27;20575;-80
2023/09/17 00:43:03;;;;;;;28.10;25.20;;;17.60;99.90;;;;;;5089296;27;20043;-79
2023/09/17 00:45:30;;;;;;;28.67;25.70;;;17.70;99.90;;;;;;5118991;27;20039;-79
2023/09/17 00:47:57;;;;;;;27.67;24.90;;;17.70;99.90;;;;;;5102279;27;20070;-80
2023/09/17 00:50:23;;;;;;;26.05;23.42;;;17.70;99.90;;;;;;5062170;27;20039;-80
2023/09/17 00:52:49;;;;;;;25.02;22.63;;;17.80;99.90;;;;;;5089887;27;20414;-80
2023/09/17 00:55:16;;;;;;;24.58;22.15;;;17.80;99.90;;;;;;5072643;27;20039;-80
2023/09/17 00:57:45;;;;;;;25.38;22.98;;;18.30;99.90;;;;;;5080559;27;20042;-80
2023/09/17 01:00:11;;;;;;;26.52;23.73;;;17.80;99.90;;;;;;5078715;27;20051;-80
2023/09/17 01:02:43;;;;;;;24.85;22.35;;;17.70;99.90;;;;;;5098699;27;20043;-80
2023/09/17 01:05:09;;;;;;;26.08;23.52;;;17.70;99.90;;;;;;5081986;27;20039;-80
2023/09/17 01:07:35;;;;;;;26.48;23.80;;;17.80;99.90;;;;;;5082418;27;20051;-80
2023/09/17 01:10:02;;;;;;;28.60;25.63;;;17.90;99.90;;;;;;5088027;27;20054;-80
2023/09/17 01:12:28;;;;;;;28.77;25.75;;;17.90;99.90;;;;;;5084790;27;20108;-81
2023/09/17 01:14:54;;;;;;;29.23;26.33;;;17.90;99.90;;;;;;5070123;27;20046;-80
2023/09/17 01:17:22;;;;;;;27.90;25.15;;;17.90;99.90;;;;;;5071256;27;20483;-81
2023/09/17 01:19:48;;;;;;;30.17;26.92;;;17.90;99.90;;;;;;5099962;27;20204;-80
2023/09/17 01:22:38;;;;;;;28.48;25.58;;;17.90;99.90;;;;;;5055596;27;20391;-81
2023/09/17 01:25:18;;;;;;;26.55;23.92;;;17.90;99.90;;;;;;5095101;27;20455;-81
2023/09/17 01:27:44;;;;;;;27.17;24.48;;;17.90;99.90;;;;;;5084691;27;20054;-81
2023/09/17 01:30:21;;;;;;;27.00;24.20;;;17.80;99.90;;;;;;5085363;27;20114;-81
2023/09/17 01:32:47;;;;;;;28.17;25.20;;;17.70;99.90;;;;;;5073253;27;20073;-81
2023/09/17 01:35:15;;;;;;;26.45;23.90;;;17.70;99.90;;;;;;5089443;27;20063;-80
2023/09/17 01:37:51;;;;;;;26.83;24.23;;;17.70;99.90;;;;;;5082514;27;20075;-81
2023/09/17 01:40:17;;;;;;;26.45;23.95;;;17.60;99.90;;;;;;5098488;27;20043;-81
2023/09/17 01:42:46;;;;;;;27.20;24.35;;;17.70;99.90;;;;;;5096911;27;20041;-81
2023/09/17 01:45:13;;;;;;;25.85;23.25;;;17.90;99.90;;;;;;5084935;27;20043;-81
2023/09/17 01:47:42;;;;;;;26.67;24.02;;;17.60;99.90;;;;;;5084633;28;20357;-81
2023/09/17 01:50:11;;;;;;;25.27;22.75;;;17.50;99.90;;;;;;5100741;27;20166;-81
2023/09/17 01:52:39;;;;;;;27.90;25.13;;;17.50;99.90;;;;;;5098044;27;20895;-81
2023/09/17 01:55:08;;;;;;;27.67;24.95;;;17.50;99.90;;;;;;5073736;27;20058;-81
2023/09/17 01:57:41;;;;;;;26.27;23.67;;;17.40;99.90;;;;;;5067265;27;20069;-81
2023/09/17 02:00:19;;;;;;;29.73;25.88;;;17.40;99.90;;;;;;5067663;28;20036;-81
2023/09/17 02:02:50;;;;;;;30.88;27.67;;;17.40;99.90;;;;;;5055841;27;20043;-80
2023/09/17 02:05:16;;;;;;;29.40;26.40;;;17.40;99.90;;;;;;5101622;27;20171;-81
2023/09/17 02:07:43;;;;;;;28.90;26.10;;;17.70;99.90;;;;;;5083998;27;20417;-80
2023/09/17 02:10:09;;;;;;;26.83;23.88;;;17.40;99.90;;;;;;5084916;27;20038;-81
2023/09/17 02:12:35;;;;;;;30.38;27.35;;;17.50;99.90;;;;;;5080051;27;20051;-81
2023/09/17 02:15:01;;;;;;;30.13;26.90;;;17.40;99.90;;;;;;5086179;27;20035;-81
2023/09/17 02:17:28;;;;;;;29.95;26.83;;;17.30;99.90;;;;;;5082014;27;20036;-81
2023/09/17 02:19:57;;;;;;;32.03;28.50;;;17.30;99.90;;;;;;5084401;27;20132;-81
2023/09/17 02:22:22;;;;;;;33.30;29.77;;;17.30;99.90;;;;;;5102968;27;20027;-81
2023/09/17 02:24:49;;;;;;;32.00;28.60;;;17.40;99.90;;;;;;5084923;27;20143;-80
2023/09/17 02:27:15;;;;;;;31.88;28.48;;;17.30;99.90;;;;;;5082213;27;20443;-81
2023/09/17 02:29:41;;;;;;;30.45;26.92;;;17.30;99.90;;;;;;5080627;27;20154;-79
2023/09/17 02:32:07;;;;;;;30.45;27.27;;;17.30;99.90;;;;;;5083169;27;20049;-80
2023/09/17 02:34:33;;;;;;;32.63;29.27;;;17.30;99.90;;;;;;5076540;27;20038;-81
2023/09/17 02:36:58;;;;;;;34.72;31.00;;;17.40;99.90;;;;;;5083376;27;20039;-81
2023/09/17 02:39:24;;;;;;;37.22;31.08;;;17.50;99.90;;;;;;5067647;27;20526;-81
2023/09/17 02:41:50;;;;;;;39.72;34.03;;;17.50;99.90;;;;;;5079217;27;20047;-81
2023/09/17 02:44:16;;;;;;;35.00;30.95;;;17.50;99.90;;;;;;5084376;27;20498;-80
2023/09/17 02:46:42;;;;;;;36.17;32.38;;;17.60;99.90;;;;;;5080072;27;20040;-80
2023/09/17 02:49:07;;;;;;;38.33;32.67;;;17.70;99.90;;;;;;5086478;27;20035;-81
2023/09/17 02:51:33;;;;;;;36.95;31.50;;;17.60;99.90;;;;;;5102408;27;20043;-79
2023/09/17 02:53:59;;;;;;;33.55;30.00;;;17.60;99.90;;;;;;5100506;27;20364;-80
2023/09/17 02:56:32;;;;;;;32.75;29.35;;;17.60;99.90;;;;;;5078476;27;20072;-81
2023/09/17 02:58:58;;;;;;;35.33;30.27;;;17.60;99.90;;;;;;5073317;27;20118;-80
2023/09/17 03:01:24;;;;;;;32.05;28.60;;;17.50;99.90;;;;;;5086899;27;20038;-80
2023/09/17 03:03:50;;;;;;;32.17;28.88;;;17.60;99.90;;;;;;5070370;27;20024;-80
2023/09/17 03:06:16;;;;;;;33.03;29.45;;;17.60;99.90;;;;;;5101218;27;20042;-81
2023/09/17 03:08:43;;;;;;;32.17;28.70;;;17.70;99.90;;;;;;5083437;27;20042;-82
2023/09/17 03:11:15;;;;;;;34.63;30.15;;;17.70;99.90;;;;;;5085605;27;20039;-81
2023/09/17 03:13:42;;;;;;;46.75;36.00;;;17.80;99.90;;;;;;5095965;27;20067;-81
2023/09/17 03:16:09;;;;;;;47.15;36.50;;;18.00;99.90;;;;;;5084771;27;20036;-81
2023/09/17 03:18:35;;;;;;;42.33;35.10;;;18.00;99.90;;;;;;5097478;27;20076;-81
2023/09/17 03:21:07;;;;;;;35.67;31.80;;;18.10;99.90;;;;;;5057479;27;20035;-81
2023/09/17 03:23:34;;;;;;;33.08;29.60;;;18.10;99.90;;;;;;5089085;27;20045;-81
2023/09/17 03:26:01;;;;;;;35.65;31.95;;;18.10;99.90;;;;;;5075869;27;20039;-82
2023/09/17 03:28:30;;;;;;;37.78;32.63;;;18.30;99.90;;;;;;5080192;27;20575;-81
2023/09/17 03:30:56;;;;;;;34.25;30.60;;;18.30;99.90;;;;;;5095220;28;20043;-80
2023/09/17 03:33:22;;;;;;;37.85;33.72;;;18.30;99.90;;;;;;5078770;27;20050;-80
2023/09/17 03:35:49;;;;;;;33.35;29.75;;;18.30;99.90;;;;;;5080835;28;20626;-80
2023/09/17 03:38:14;;;;;;;35.60;31.77;;;18.30;99.90;;;;;;5068951;28;20634;-80
2023/09/17 03:40:40;;;;;;;33.97;30.50;;;18.30;99.90;;;;;;5068249;27;20043;-80
2023/09/17 03:43:08;;;;;;;41.00;35.08;;;18.30;99.90;;;;;;5097003;27;20043;-80
2023/09/17 03:45:34;;;;;;;32.50;29.00;;;19.00;99.90;;;;;;5069731;27;20035;-80
2023/09/17 03:48:00;;;;;;;37.75;33.33;;;18.50;99.90;;;;;;5080274;27;20479;-80
2023/09/17 03:50:27;;;;;;;44.47;35.47;;;18.50;99.90;;;;;;5080255;28;20036;-80
2023/09/17 03:52:56;;;;;;;39.63;33.90;;;18.60;99.90;;;;;;5061021;27;20118;-80
2023/09/17 03:55:23;;;;;;;38.83;33.30;;;18.70;99.90;;;;;;5095739;27;20039;-80
2023/09/17 03:57:50;;;;;;;36.80;32.83;;;18.70;99.90;;;;;;5073470;27;20039;-80
2023/09/17 04:00:17;;;;;;;35.20;31.45;;;18.80;99.90;;;;;;5102211;27;20146;-80
2023/09/17 04:02:44;;;;;;;37.00;32.03;;;18.90;99.90;;;;;;5075889;28;20118;-81
2023/09/17 04:05:13;;;;;;;39.05;34.40;;;18.80;99.90;;;;;;5082173;28;20100;-81
2023/09/17 04:07:41;;;;;;;32.88;29.45;;;18.80;99.90;;;;;;5077415;28;20059;-81
2023/09/17 04:10:08;;;;;;;29.27;26.48;;;18.80;99.90;;;;;;5097124;28;20051;-82
2023/09/17 04:12:35;;;;;;;30.08;27.02;;;18.70;99.90;;;;;;5071807;28;20057;-82
2023/09/17 04:15:13;;;;;;;29.83;26.83;;;18.60;99.90;;;;;;5081442;28;20517;-83
2023/09/17 04:17:39;;;;;;;28.08;25.05;;;18.60;99.90;;;;;;5083681;28;20123;-83
2023/09/17 04:20:11;;;;;;;27.67;24.90;;;18.50;99.90;;;;;;5075556;28;20047;-81
2023/09/17 04:22:37;;;;;;;29.75;26.73;;;18.40;99.90;;;;;;5099334;28;20071;-81
2023/09/17 04:25:05;;;;;;;30.35;27.23;;;18.50;99.90;;;;;;5074297;28;20387;-80
2023/09/17 04:27:32;;;;;;;29.17;26.23;;;18.60;99.90;;;;;;5089470;28;20387;-80
2023/09/17 04:29:57;;;;;;;29.85;26.85;;;18.60;99.90;;;;;;5098113;28;20031;-81
2023/09/17 04:32:23;;;;;;;31.67;28.25;;;18.60;99.90;;;;;;5079287;28;20473;-81
2023/09/17 04:34:49;;;;;;;32.15;28.85;;;18.60;99.90;;;;;;5085744;28;20563;-82
2023/09/17 04:37:19;;;;;;;31.88;28.38;;;18.60;99.90;;;;;;5067604;28;20038;-81
2023/09/17 04:39:49;;;;;;;29.95;26.88;;;18.50;99.90;;;;;;5082005;28;20050;-80
2023/09/17 04:42:15;;;;;;;30.42;27.20;;;18.50;99.90;;;;;;5083499;28;20039;-81
2023/09/17 04:44:40;;;;;;;30.10;27.05;;;18.50;99.90;;;;;;5079082;28;20564;-82
2023/09/17 04:47:06;;;;;;;36.22;29.85;;;18.50;99.90;;;;;;5081163;28;20062;-82
2023/09/17 04:49:33;;;;;;;32.30;29.10;;;18.60;99.90;;;;;;5085456;28;20039;-81
2023/09/17 04:51:59;;;;;;;31.15;27.95;;;18.50;99.90;;;;;;5101248;28;20483;-82
2023/09/17 04:54:25;;;;;;;33.70;30.08;;;18.60;99.90;;;;;;5067246;28;20177;-82
2023/09/17 04:56:50;;;;;;;36.33;30.70;;;18.70;99.90;;;;;;5053111;28;20043;-82
2023/09/17 04:59:16;;;;;;;34.83;31.00;;;18.70;99.90;;;;;;5086165;28;20042;-82
2023/09/17 05:01:42;;;;;;;46.83;34.05;;;18.70;99.90;;;;;;5053710;28;20039;-81
2023/09/17 05:04:08;;;;;;;39.55;32.65;;;18.70;99.90;;;;;;5081110;27;20043;-81
2023/09/17 05:06:34;;;;;;;34.05;30.45;;;18.80;99.90;;;;;;5087065;27;20058;-82
2023/09/17 05:09:00;;;;;;;35.60;30.98;;;19.00;99.90;;;;;;5082096;27;20035;-82
2023/09/17 05:11:26;;;;;;;35.88;32.05;;;18.90;99.90;;;;;;5072483;27;20043;-81
2023/09/17 05:13:52;;;;;;;38.42;34.00;;;18.90;99.90;;;;;;5099838;27;20031;-81
2023/09/17 05:16:17;;;;;;;37.28;32.70;;;18.90;99.90;;;;;;5123856;27;20415;-81
2023/09/17 05:18:43;;;;;;;40.22;34.80;;;18.90;99.90;;;;;;5068434;28;20046;-81
2023/09/17 05:21:09;;;;;;;41.03;35.28;;;19.00;99.90;;;;;;5087070;27;20047;-79
2023/09/17 05:23:35;;;;;;;57.70;40.50;;;19.00;99.90;;;;;;5084733;27;20039;-81
2023/09/17 05:26:01;;;;;;;48.28;38.60;;;19.00;99.90;;;;;;5078327;27;20032;-81
2023/09/17 05:28:33;;;;;;;54.88;41.53;;;19.20;99.90;;;;;;5072576;27;20072;-81
2023/09/17 05:31:00;;;;;;;50.95;40.15;;;19.20;99.90;;;;;;5100925;27;20031;-81
2023/09/17 05:33:26;;;;;;;50.95;40.47;;;19.30;99.90;;;;;;5073502;27;20192;-81
2023/09/17 05:35:56;;;;;;;44.67;38.17;;;19.20;99.90;;;;;;5068158;27;20036;-81
2023/09/17 05:38:23;;;;;;;43.58;37.13;;;19.50;99.90;;;;;;5083939;27;20035;-80
2023/09/17 05:40:49;;;;;;;43.42;37.85;;;19.30;99.90;;;;;;5068689;27;20035;-81
2023/09/17 05:43:15;;;;;;;46.55;38.42;;;19.50;99.90;;;;;;5070948;27;20600;-81
2023/09/17 05:45:41;;;;;;;46.60;38.42;;;19.40;99.90;;;;;;5099232;27;20040;-82
2023/09/17 05:48:07;;;;;;;47.08;39.90;;;19.60;99.90;;;;;;5068781;27;20046;-81
2023/09/17 05:50:33;;;;;;;47.58;39.70;;;19.50;99.90;;;;;;5070663;27;20031;-81
2023/09/17 05:52:58;;;;;;;48.60;37.72;;;19.60;99.90;;;;;;5080645;27;20038;-80
2023/09/17 05:55:25;;;;;;;41.33;36.13;;;19.50;99.90;;;;;;5087120;27;20039;-80
2023/09/17 05:57:50;;;;;;;48.97;39.22;;;19.60;99.90;;;;;;5070405;27;20461;-82
2023/09/17 06:00:20;;;;;;;45.55;38.08;;;19.70;99.90;;;;;;5052756;27;20032;-81
2023/09/17 06:02:46;;;;;;;43.15;35.35;;;19.70;99.90;;;;;;5089129;27;20051;-80
2023/09/17 06:05:11;;;;;;;43.20;36.38;;;19.90;99.90;;;;;;5054636;27;20087;-80
2023/09/17 06:07:37;;;;;;;48.97;38.50;;;19.80;99.90;;;;;;5080028;27;20062;-82
2023/09/17 06:10:04;;;;;;;41.90;37.38;;;20.00;99.90;;;;;;5083898;27;20406;-82
2023/09/17 06:12:31;;;;;;;45.20;37.95;;;19.80;99.90;;;;;;5087664;27;20075;-81
2023/09/17 06:14:57;;;;;;;39.25;35.13;;;20.10;99.90;;;;;;5081848;27;20031;-81
2023/09/17 06:17:22;;;;;;;40.95;34.55;;;20.10;99.90;;;;;;5085948;27;20061;-82
2023/09/17 06:19:48;;;;;;;41.70;37.15;;;20.00;99.90;;;;;;5054503;27;20480;-82
2023/09/17 06:22:14;;;;;;;43.35;37.80;;;20.10;99.90;;;;;;5086044;27;20035;-82
2023/09/17 06:24:40;;;;;;;43.80;36.75;;;20.10;99.90;;;;;;5073897;27;20127;-81
2023/09/17 06:27:05;;;;;;;41.83;36.90;;;20.00;99.90;;;;;;5078694;27;20040;-81
2023/09/17 06:29:31;;;;;;;40.10;35.78;;;20.00;99.90;;;;;;5099850;27;20040;-80
2023/09/17 06:31:57;;;;;;;38.30;34.15;;;20.30;99.90;;;;;;5102872;27;20119;-80
2023/09/17 06:34:23;;;;;;;41.08;35.45;;;20.10;99.90;;;;;;5100050;27;20047;-80
2023/09/17 06:36:49;;;;;;;39.75;35.40;;;20.20;99.90;;;;;;5078127;27;20047;-81
2023/09/17 06:39:15;;;;;;;39.72;35.45;;;20.20;99.90;;;;;;5097817;27;20067;-81
2023/09/17 06:41:40;;;;;;;43.28;36.75;;;20.30;99.90;;;;;;5082306;27;20121;-80
2023/09/17 06:44:06;;;;;;;39.45;35.47;;;20.50;99.90;;;;;;5079523;27;20531;-81
2023/09/17 06:46:32;;;;;;;41.30;35.92;;;20.50;99.90;;;;;;5054842;27;20039;-81
2023/09/17 06:48:58;;;;;;;40.13;35.05;;;20.40;99.90;;;;;;5066843;27;20119;-80
2023/09/17 06:51:24;;;;;;;36.63;32.60;;;20.50;99.90;;;;;;5071308;27;20978;-81
2023/09/17 06:53:49;;;;;;;35.33;31.33;;;20.60;99.90;;;;;;5084485;27;20607;-81
2023/09/17 06:56:16;;;;;;;36.35;32.33;;;20.60;99.90;;;;;;5079891;28;20043;-81
2023/09/17 06:58:42;;;;;;;38.15;34.13;;;20.80;99.90;;;;;;5088213;27;20130;-80
2023/09/17 07:01:09;;;;;;;37.03;32.70;;;21.00;99.90;;;;;;5059791;27;20459;-82
2023/09/17 07:03:35;;;;;;;37.22;33.33;;;21.00;99.90;;;;;;5063311;27;20065;-81
2023/09/17 07:06:00;;;;;;;36.90;32.17;;;21.20;99.90;;;;;;5045850;27;20066;-81
2023/09/17 07:08:26;;;;;;;38.53;33.38;;;21.00;99.90;;;;;;5069474;27;20052;-81
2023/09/17 07:10:52;;;;;;;38.13;31.60;;;20.90;99.90;;;;;;5069552;28;20051;-81
2023/09/17 07:13:18;;;;;;;34.25;30.50;;;21.20;99.90;;;;;;5072038;27;20050;-81
2023/09/17 07:15:44;;;;;;;33.03;29.50;;;21.30;99.90;;;;;;5075229;27;20104;-76
2023/09/17 07:18:16;;;;;;;36.85;32.85;;;21.10;99.90;;;;;;5065093;27;20035;-82
2023/09/17 07:20:41;;;;;;;34.63;30.92;;;21.20;99.90;;;;;;5077377;27;20089;-82
2023/09/17 07:23:08;;;;;;;34.03;30.50;;;21.40;99.90;;;;;;5048444;28;21875;-82
2023/09/17 07:25:33;;;;;;;34.72;30.85;;;21.50;99.90;;;;;;5105458;27;20409;-84
2023/09/17 07:28:06;;;;;;;34.05;30.38;;;21.40;99.90;;;;;;5102382;27;20130;-83
2023/09/17 07:30:37;;;;;;;32.17;28.77;;;21.80;99.90;;;;;;5084056;27;20526;-82
2023/09/17 07:33:04;;;;;;;33.35;29.75;;;21.80;99.90;;;;;;5098175;27;20039;-82
2023/09/17 07:35:30;;;;;;;33.90;30.40;;;22.00;99.90;;;;;;5098273;27;20086;-81
2023/09/17 07:37:56;;;;;;;33.95;30.33;;;21.80;99.90;;;;;;5080964;27;20092;-81
2023/09/17 07:40:22;;;;;;;34.08;27.83;;;22.00;99.90;;;;;;5064015;28;20035;-82
2023/09/17 07:42:47;;;;;;;33.78;30.25;;;22.20;99.90;;;;;;5065761;28;20050;-82
2023/09/17 07:45:13;;;;;;;33.05;29.55;;;22.10;99.90;;;;;;5093893;27;20040;-81
2023/09/17 07:47:40;;;;;;;34.78;30.25;;;22.40;99.90;;;;;;5079758;28;20039;-81
2023/09/17 07:50:06;;;;;;;34.70;30.05;;;22.30;99.90;;;;;;5078153;28;20035;-81
2023/09/17 07:52:33;;;;;;;32.28;28.88;;;22.50;99.90;;;;;;5076106;28;20744;-81
2023/09/17 07:54:58;;;;;;;33.35;29.70;;;22.50;99.90;;;;;;5078093;28;20031;-81
2023/09/17 07:57:24;;;;;;;31.50;28.25;;;22.50;99.90;;;;;;5094011;28;20043;-81
2023/09/17 07:59:52;;;;;;;30.23;27.13;;;22.40;99.90;;;;;;5095621;28;20122;-82
2023/09/17 08:02:18;;;;;;;29.08;26.20;;;22.40;99.90;;;;;;5077763;27;20031;-82
2023/09/17 08:04:44;;;;;;;28.73;25.80;;;22.60;99.90;;;;;;5078798;28;20135;-83
2023/09/17 08:07:11;;;;;;;29.15;26.05;;;22.70;99.90;;;;;;5083686;28;20096;-83
2023/09/17 08:09:37;;;;;;;31.92;28.50;;;22.70;99.90;;;;;;5085233;28;20655;-81
2023/09/17 08:12:04;;;;;;;31.98;28.58;;;22.70;99.90;;;;;;5096191;28;20536;-81
2023/09/17 08:14:30;;;;;;;29.10;25.90;;;22.70;99.90;;;;;;5081896;28;20119;-81
2023/09/17 08:16:56;;;;;;;27.30;24.63;;;22.90;99.90;;;;;;5072669;28;20138;-81
2023/09/17 08:19:22;;;;;;;26.85;24.20;;;22.80;99.90;;;;;;5052266;28;20031;-81
2023/09/17 08:21:48;;;;;;;27.25;22.95;;;22.90;99.90;;;;;;5050981;28;20643;-79
2023/09/17 08:24:26;;;;;;;25.27;22.58;;;22.80;99.90;;;;;;5098446;28;20047;-82
2023/09/17 08:26:52;;;;;;;25.75;23.23;;;23.00;99.90;;;;;;5065276;28;20039;-82
2023/09/17 08:29:21;;;;;;;23.00;20.73;;;23.30;99.90;;;;;;5072594;28;20031;-83
2023/09/17 08:31:51;;;;;;;24.00;21.60;;;23.30;99.90;;;;;;5090176;28;20043;-81
2023/09/17 08:34:16;;;;;;;22.83;20.13;;;23.20;99.90;;;;;;5081449;28;20459;-83
2023/09/17 08:36:44;;;;;;;23.08;20.27;;;23.10;99.90;;;;;;5085527;28;20076;-82
2023/09/17 08:39:11;;;;;;;24.58;21.38;;;23.10;99.90;;;;;;5098525;27;20482;-85
2023/09/17 08:41:40;;;;;;;24.52;21.85;;;23.20;99.90;;;;;;5083923;28;20413;-84
2023/09/17 08:44:07;;;;;;;23.45;20.77;;;22.90;99.90;;;;;;5080734;27;20409;-83
2023/09/17 08:46:33;;;;;;;25.85;21.83;;;22.90;99.90;;;;;;5104694;27;20035;-83
2023/09/17 08:49:01;;;;;;;24.75;22.05;;;22.90;99.90;;;;;;5058630;27;20032;-82
2023/09/17 08:51:32;;;;;;;23.65;21.30;;;23.00;99.90;;;;;;5088422;27;20027;-83
2023/09/17 08:54:13;;;;;;;24.63;21.20;;;22.90;99.90;;;;;;5092595;27;20038;-85
2023/09/17 08:56:44;;;;;;;24.45;21.92;;;23.00;99.90;;;;;;5088577;27;20047;-83
2023/09/17 08:59:12;;;;;;;24.67;20.83;;;23.00;99.90;;;;;;5083103;27;20035;-82
2023/09/17 09:01:42;;;;;;;23.27;20.77;;;23.10;99.90;;;;;;5080194;28;20064;-83
2023/09/17 09:04:09;;;;;;;22.83;19.90;;;23.10;99.90;;;;;;5082957;27;20090;-84
2023/09/17 09:06:36;;;;;;;20.63;18.52;;;23.10;99.90;;;;;;5072854;27;21587;-83
2023/09/17 09:09:05;;;;;;;22.33;17.90;;;23.20;99.90;;;;;;5088726;27;20047;-82
2023/09/17 09:11:34;;;;;;;21.83;19.63;;;23.20;99.90;;;;;;5066026;27;20039;-83
2023/09/17 09:14:03;;;;;;;22.08;19.65;;;23.30;99.90;;;;;;5072071;27;20066;-83
2023/09/17 09:16:32;;;;;;;21.20;19.00;;;23.20;99.90;;;;;;5084238;27;20054;-81
2023/09/17 09:18:59;;;;;;;20.83;18.73;;;23.30;99.90;;;;;;5086643;27;20062;-81
2023/09/17 09:21:25;;;;;;;20.80;18.60;;;23.20;99.90;;;;;;5086566;27;20105;-82
2023/09/17 09:23:50;;;;;;;20.58;18.58;;;23.30;99.90;;;;;;5076675;27;20043;-81
2023/09/17 09:26:16;;;;;;;20.17;17.98;;;23.40;99.90;;;;;;5070889;27;20046;-83
2023/09/17 09:28:42;;;;;;;19.88;17.75;;;23.40;99.90;;;;;;5085719;27;20043;-83
2023/09/17 09:31:09;;;;;;;20.50;18.20;;;23.50;99.90;;;;;;5086068;27;20066;-83
2023/09/17 09:33:35;;;;;;;19.63;17.63;;;23.50;99.90;;;;;;5075253;27;20107;-81
2023/09/17 09:36:01;;;;;;;20.05;17.92;;;23.50;99.90;;;;;;5079620;27;20050;-83
2023/09/17 09:38:28;;;;;;;19.63;17.63;;;23.60;99.90;;;;;;5086414;27;20035;-83
2023/09/17 09:40:54;;;;;;;20.40;17.77;;;23.60;99.90;;;;;;5102646;27;20031;-82
2023/09/17 09:43:30;;;;;;;23.58;17.42;;;23.70;99.90;;;;;;5085853;27;20396;-84
2023/09/17 09:46:04;;;;;;;21.40;17.13;;;23.60;99.90;;;;;;5090447;27;20083;-82
2023/09/17 09:48:31;;;;;;;18.80;16.90;;;23.50;99.90;;;;;;5072382;27;20039;-82
2023/09/17 09:50:58;;;;;;;19.75;17.60;;;23.60;99.90;;;;;;5071955;27;20399;-82
2023/09/17 09:53:26;;;;;;;19.88;17.85;;;23.70;99.90;;;;;;5069383;27;20043;-83
2023/09/17 09:55:52;;;;;;;18.65;16.75;;;23.60;99.90;;;;;;5080255;27;20035;-83
2023/09/17 09:58:18;;;;;;;20.48;16.70;;;23.70;99.90;;;;;;5099880;27;20054;-82
2023/09/17 10:00:45;;;;;;;17.65;15.95;;;23.80;99.90;;;;;;5075542;27;20039;-83
2023/09/17 10:03:17;;;;;;;17.40;15.70;;;23.80;99.90;;;;;;5075710;27;20040;-82
2023/09/17 10:05:44;;;;;;;18.45;15.93;;;23.80;99.90;;;;;;5084451;27;20039;-82
2023/09/17 10:08:12;;;;;;;18.58;15.35;;;23.80;99.90;;;;;;5079879;27;20047;-82
2023/09/17 10:10:38;;;;;;;18.27;15.52;;;23.90;99.90;;;;;;5086135;27;20074;-82
2023/09/17 10:13:08;;;;;;;15.98;14.38;;;23.80;99.90;;;;;;5074099;27;20092;-82
2023/09/17 10:15:41;;;;;;;17.38;15.45;;;23.80;99.90;;;;;;5067726;27;20042;-82
2023/09/17 10:18:10;;;;;;;16.75;14.98;;;23.80;99.90;;;;;;5089363;28;20380;-83
2023/09/17 10:20:38;;;;;;;15.35;13.85;;;23.80;99.90;;;;;;5079673;27;20035;-82
2023/09/17 10:23:05;;;;;;;16.63;14.70;;;23.90;99.90;;;;;;5091448;27;20074;-82
2023/09/17 10:25:33;;;;;;;16.25;14.27;;;23.80;99.90;;;;;;5075451;27;20046;-82
2023/09/17 10:28:02;;;;;;;17.10;15.30;;;23.90;99.90;;;;;;5083663;27;20100;-81
2023/09/17 10:30:28;;;;;;;17.00;15.27;;;24.10;99.90;;;;;;5080820;27;20035;-81
2023/09/17 10:32:56;;;;;;;15.70;14.07;;;24.00;99.90;;;;;;5095924;27;20063;-81
2023/09/17 10:35:22;;;;;;;16.10;14.52;;;24.00;99.90;;;;;;5094038;28;20043;-81
2023/09/17 10:37:50;;;;;;;17.08;15.27;;;24.00;99.90;;;;;;5098951;27;20101;-81
2023/09/17 10:40:17;;;;;;;18.25;16.35;;;24.10;99.90;;;;;;5081726;27;20043;-82
2023/09/17 10:42:44;;;;;;;16.38;14.77;;;24.10;99.90;;;;;;5093586;27;20039;-81
2023/09/17 10:45:10;;;;;;;21.60;14.85;;;24.00;99.90;;;;;;5065789;27;20035;-80
2023/09/17 10:47:40;;;;;;;17.23;15.52;;;24.00;99.90;;;;;;5066051;27;20049;-82
2023/09/17 10:50:16;;;;;;;14.93;13.43;;;23.90;99.90;;;;;;5073551;27;20122;-80
2023/09/17 10:52:43;;;;;;;16.73;14.95;;;24.00;99.90;;;;;;5081048;27;20617;-82
2023/09/17 10:55:11;;;;;;;18.15;16.45;;;24.10;99.90;;;;;;5073151;27;20039;-83
2023/09/17 10:57:46;;;;;;;15.30;13.85;;;24.10;99.90;;;;;;5081887;27;20122;-84
2023/09/17 11:00:22;;;;;;;15.10;13.57;;;24.20;99.90;;;;;;5099075;27;20138;-82
2023/09/17 11:02:53;;;;;;;15.68;14.18;;;24.20;99.90;;;;;;5088516;27;20039;-83
2023/09/17 11:05:22;;;;;;;13.82;12.45;;;24.20;99.90;;;;;;5075353;27;20100;-84
2023/09/17 11:07:59;;;;;;;15.73;13.10;;;24.10;99.90;;;;;;5075235;27;20118;-82
2023/09/17 11:10:28;;;;;;;16.40;13.63;;;24.10;99.90;;;;;;5064155;27;20407;-81
2023/09/17 11:12:54;;;;;;;15.82;14.18;;;24.00;99.90;;;;;;5090216;27;20047;-82
2023/09/17 11:15:20;;;;;;;15.75;14.18;;;24.70;99.90;;;;;;5077983;27;20120;-81
2023/09/17 11:17:53;;;;;;;17.00;15.25;;;23.80;99.90;;;;;;5079191;28;20035;-82
2023/09/17 11:20:23;;;;;;;18.17;16.30;;;23.60;99.90;;;;;;5079579;27;20093;-82
2023/09/17 11:22:57;;;;;;;16.98;14.85;;;23.60;99.90;;;;;;5087629;28;20518;-84
2023/09/17 11:25:37;;;;;;;16.77;15.20;;;23.60;99.90;;;;;;5065609;27;20724;-84
2023/09/17 11:28:11;;;;;;;18.10;16.33;;;23.90;99.90;;;;;;5099747;27;20039;-84
2023/09/17 11:30:54;;;;;;;;;;;24.30;99.90;;;;;;5080444;27;20059;-82
2023/09/17 11:33:22;;;;;;;17.17;15.48;;;24.30;99.90;;;;;;5071275;27;19954;-81
2023/09/17 11:35:48;;;;;;;16.65;14.95;;;24.30;99.90;;;;;;5093875;28;20036;-81
2023/09/17 11:38:14;;;;;;;17.23;15.23;;;24.50;99.90;;;;;;5068421;27;20046;-80
2023/09/17 11:40:42;;;;;;;17.70;15.27;;;24.40;99.90;;;;;;5117932;27;20038;-84
2023/09/17 11:43:08;;;;;;;16.15;14.55;;;24.30;99.90;;;;;;5074444;27;20043;-83
2023/09/17 11:45:34;;;;;;;16.00;14.32;;;24.30;99.90;;;;;;5051525;27;20177;-82
2023/09/17 11:48:07;;;;;;;15.40;14.05;;;24.30;99.90;;;;;;5067985;27;20039;-81
2023/09/17 11:50:32;;;;;;;16.50;14.90;;;24.10;99.90;;;;;;5089980;27;20038;-81
2023/09/17 11:53:10;;;;;;;15.32;13.73;;;24.10;99.90;;;;;;5065950;27;20489;-82
2023/09/17 11:55:49;;;;;;;16.13;14.43;;;24.00;99.90;;;;;;5067458;27;20058;-82
2023/09/17 11:58:18;;;;;;;15.95;14.32;;;24.00;99.90;;;;;;5084673;27;20495;-81
2023/09/17 12:00:48;;;;;;;17.08;15.48;;;23.90;99.90;;;;;;5096872;28;20051;-80
2023/09/17 12:03:14;;;;;;;15.30;13.70;;;24.10;99.90;;;;;;5091570;27;20467;-80
2023/09/17 12:05:40;;;;;;;17.08;15.45;;;24.00;99.90;;;;;;5106848;28;20042;-81
2023/09/17 12:08:06;;;;;;;16.27;14.77;;;24.00;99.90;;;;;;5052168;28;20039;-82
2023/09/17 12:10:37;;;;;;;16.58;14.90;;;24.10;99.90;;;;;;5088973;27;20107;-83
2023/09/17 12:13:04;;;;;;;16.40;14.88;;;24.40;99.90;;;;;;5089887;28;20044;-82
2023/09/17 12:15:31;;;;;;;18.02;16.13;;;24.20;99.90;;;;;;5108765;28;20062;-82
2023/09/17 12:17:58;;;;;;;16.58;14.90;;;24.40;99.90;;;;;;5108302;28;20053;-84
2023/09/17 12:23:32;;;;;;;16.65;14.75;;;24.70;99.90;;;;;;5103652;28;20046;-82
2023/09/17 12:25:58;;;;;;;16.27;14.68;;;25.00;99.90;;;;;;5079806;28;20035;-82
2023/09/17 12:28:28;;;;;;;16.23;14.55;;;25.40;99.90;;;;;;5069786;28;20055;-85
2023/09/17 12:30:54;;;;;;;15.30;13.57;;;25.50;99.90;;;;;;5069157;28;20039;-81
2023/09/17 12:33:24;;;;;;;15.60;14.10;;;25.80;99.90;;;;;;5090144;28;20035;-83